KEKX

Details ICAO KEKX
Name ADDINGTON FLD
Region United States
Timezone America/New_York (UTC-5.0)
Plans Departing 3
Arriving 9
Stats Elevation 775 ft / 236 m (AMSL)
Location 37.686007° -85.925038°
Runways 1
Magnetic Variation 4.600° W
Sunrise 2017-12-13 12:51:50 UTC / 2017-12-13 07:51:50 Local
Sunset 2017-12-13 22:27:01 UTC / 2017-12-13 17:27:01 Local
Advertisement - Login to hide

Runways

ID Width Length Bearing (true) Bearing (mag) Surface Threshold Offset Overrun Length
05 100 ft / 30 m 6,000 ft / 1,829 m 46.51° 51.11° Asphalt 0 ft / 0 m 0 ft / 0 m
23 100 ft / 30 m 6,000 ft / 1,829 m 226.52° 231.12° Asphalt 0 ft / 0 m 0 ft / 0 m

Map

Weather


0- 5 10 15 20 25 30 35+ Temperature / ° C

Clouds and Precipitation
Forecast for 2017-12-13 18:00 UTC. Updated an hour ago

Ground ~20,000 ft ~40,000 ft Winds

METAR

KEKX 131815Z AUTO 21017G26KT 10SM CLR 04/M12 A2970 RMK AO2 T00441119

TAF

Not found

Frequencies

Recorded 121.02 MHz AWOS 3
Clearance 119.45 MHz CLNC DEL
Approach 132.07 MHz LOUISVILLE APP/DEP
Unicom 122.80 MHz CTAF/UNICOM
Approach 123.67 MHz LOUISVILLE APP/DEP
Warning: Do not use this data for real-world aviation or navigation. No guarantee of current accuracy is given.